Alpha, New Jersey
Current Conditions -  °F | °C
As of 1:51 AM on Monday 24 Nov 2014 (Local Time) from KABE Reporting Station
Light Rain Light Rain  
Wind Chill: 53°   Ceiling: 900
Heat Index: 53°   Visibility: 2.5mi
Dew Point: 50°   Wind: 10mph
Humidity: 89%   Direction: 110°ESE
Pressure: 29.79"   Gusts: NA
Location:  40.7083°N, 75.1472°W
Report Text: KABE 240651Z 11009KT 2 1/2SM -RA BR BKN009 BKN015 OVC030 12/10 A2979 RMK AO2 SFC VIS 5 SLP087 P0011 T01170100
Loading
Personal Weather Stations






























Interactive Weather Map New forecast layout! Learn more

10-Day Weather Forecast

Advertisements
Track Severe Weather on mobile